sensor_id;sensor_type;location;lat;lon;timestamp;P1;durP1;ratioP1;P2;durP2;ratioP2
50495;SDS011;38806;51.554;5.704;2023-01-09T00:00:14;1.00;;;0.20;;
50495;SDS011;38806;51.554;5.704;2023-01-09T00:02:15;0.82;;;0.20;;
50495;SDS011;38806;51.554;5.704;2023-01-09T00:04:15;1.42;;;0.45;;
50495;SDS011;38806;51.554;5.704;2023-01-09T00:06:16;1.58;;;0.50;;
50495;SDS011;38806;51.554;5.704;2023-01-09T00:08:16;1.17;;;0.30;;
50495;SDS011;38806;51.554;5.704;2023-01-09T00:10:17;0.30;;;0.17;;
50495;SDS011;38806;51.554;5.704;2023-01-09T00:12:17;1.10;;;0.55;;
50495;SDS011;38806;51.554;5.704;2023-01-09T00:14:19;1.58;;;0.43;;
50495;SDS011;38806;51.554;5.704;2023-01-09T00:16:21;1.48;;;0.55;;
50495;SDS011;38806;51.554;5.704;2023-01-09T00:18:21;0.95;;;0.40;;
50495;SDS011;38806;51.554;5.704;2023-01-09T00:20:22;6.13;;;0.75;;
50495;SDS011;38806;51.554;5.704;2023-01-09T00:22:22;0.80;;;0.30;;
50495;SDS011;38806;51.554;5.704;2023-01-09T00:24:22;2.13;;;0.50;;
50495;SDS011;38806;51.554;5.704;2023-01-09T00:26:22;1.33;;;0.40;;
50495;SDS011;38806;51.554;5.704;2023-01-09T00:28:22;1.10;;;0.40;;
50495;SDS011;38806;51.554;5.704;2023-01-09T00:30:23;1.88;;;0.50;;
50495;SDS011;38806;51.554;5.704;2023-01-09T00:32:23;0.80;;;0.35;;
50495;SDS011;38806;51.554;5.704;2023-01-09T00:34:23;1.75;;;0.50;;
50495;SDS011;38806;51.554;5.704;2023-01-09T00:36:24;3.38;;;0.88;;
50495;SDS011;38806;51.554;5.704;2023-01-09T00:38:24;2.78;;;0.40;;
50495;SDS011;38806;51.554;5.704;2023-01-09T00:40:25;1.00;;;0.40;;
50495;SDS011;38806;51.554;5.704;2023-01-09T00:42:25;1.73;;;0.50;;
50495;SDS011;38806;51.554;5.704;2023-01-09T00:44:28;1.08;;;0.30;;
50495;SDS011;38806;51.554;5.704;2023-01-09T00:46:30;1.73;;;0.50;;
50495;SDS011;38806;51.554;5.704;2023-01-09T00:48:32;2.10;;;0.57;;
50495;SDS011;38806;51.554;5.704;2023-01-09T00:50:33;2.38;;;0.60;;
50495;SDS011;38806;51.554;5.704;2023-01-09T00:52:34;2.72;;;0.80;;
50495;SDS011;38806;51.554;5.704;2023-01-09T00:54:37;2.63;;;0.60;;
50495;SDS011;38806;51.554;5.704;2023-01-09T00:56:37;2.03;;;0.60;;
50495;SDS011;38806;51.554;5.704;2023-01-09T00:58:38;3.10;;;0.95;;
50495;SDS011;38806;51.554;5.704;2023-01-09T01:00:38;1.75;;;0.60;;
50495;SDS011;38806;51.554;5.704;2023-01-09T01:02:38;1.65;;;0.65;;
50495;SDS011;38806;51.554;5.704;2023-01-09T01:04:39;1.95;;;0.77;;
50495;SDS011;38806;51.554;5.704;2023-01-09T01:06:57;2.88;;;1.10;;
50495;SDS011;38806;51.554;5.704;2023-01-09T01:09:16;5.18;;;0.70;;
50495;SDS011;38806;51.554;5.704;2023-01-09T01:11:17;4.60;;;0.90;;
50495;SDS011;38806;51.554;5.704;2023-01-09T01:13:17;3.30;;;0.90;;
50495;SDS011;38806;51.554;5.704;2023-01-09T01:15:17;2.80;;;0.80;;
50495;SDS011;38806;51.554;5.704;2023-01-09T01:17:18;2.65;;;0.80;;
50495;SDS011;38806;51.554;5.704;2023-01-09T01:19:18;3.83;;;0.90;;
50495;SDS011;38806;51.554;5.704;2023-01-09T01:21:18;3.88;;;0.85;;
50495;SDS011;38806;51.554;5.704;2023-01-09T01:23:18;2.40;;;0.77;;
50495;SDS011;38806;51.554;5.704;2023-01-09T01:25:19;2.65;;;0.90;;
50495;SDS011;38806;51.554;5.704;2023-01-09T01:27:19;2.90;;;1.05;;
50495;SDS011;38806;51.554;5.704;2023-01-09T01:29:19;3.10;;;0.82;;
50495;SDS011;38806;51.554;5.704;2023-01-09T01:31:19;2.47;;;0.85;;
50495;SDS011;38806;51.554;5.704;2023-01-09T01:33:20;2.08;;;0.60;;
50495;SDS011;38806;51.554;5.704;2023-01-09T01:35:20;2.92;;;0.93;;
50495;SDS011;38806;51.554;5.704;2023-01-09T01:37:21;4.07;;;0.80;;
50495;SDS011;38806;51.554;5.704;2023-01-09T01:39:22;2.83;;;1.13;;
50495;SDS011;38806;51.554;5.704;2023-01-09T01:41:22;4.38;;;2.33;;
50495;SDS011;38806;51.554;5.704;2023-01-09T01:45:47;4.05;;;1.10;;
50495;SDS011;38806;51.554;5.704;2023-01-09T01:49:57;4.95;;;0.98;;
50495;SDS011;38806;51.554;5.704;2023-01-09T01:51:58;5.93;;;1.88;;
50495;SDS011;38806;51.554;5.704;2023-01-09T01:53:59;3.78;;;1.30;;
50495;SDS011;38806;51.554;5.704;2023-01-09T01:56:09;4.70;;;1.20;;
50495;SDS011;38806;51.554;5.704;2023-01-09T01:58:13;2.30;;;0.73;;
50495;SDS011;38806;51.554;5.704;2023-01-09T02:00:13;4.18;;;1.25;;
50495;SDS011;38806;51.554;5.704;2023-01-09T02:02:17;2.25;;;1.13;;
50495;SDS011;38806;51.554;5.704;2023-01-09T02:04:18;5.35;;;0.90;;
50495;SDS011;38806;51.554;5.704;2023-01-09T02:06:19;2.58;;;1.00;;
50495;SDS011;38806;51.554;5.704;2023-01-09T02:08:19;3.33;;;1.23;;
50495;SDS011;38806;51.554;5.704;2023-01-09T02:10:20;3.35;;;1.20;;
50495;SDS011;38806;51.554;5.704;2023-01-09T02:12:26;5.95;;;1.50;;
50495;SDS011;38806;51.554;5.704;2023-01-09T02:14:27;3.38;;;1.20;;
50495;SDS011;38806;51.554;5.704;2023-01-09T02:16:49;3.35;;;1.30;;
50495;SDS011;38806;51.554;5.704;2023-01-09T02:32:06;7.07;;;1.77;;
50495;SDS011;38806;51.554;5.704;2023-01-09T02:34:11;2.50;;;1.10;;
50495;SDS011;38806;51.554;5.704;2023-01-09T02:38:45;4.13;;;1.33;;
50495;SDS011;38806;51.554;5.704;2023-01-09T02:41:01;3.67;;;0.90;;
50495;SDS011;38806;51.554;5.704;2023-01-09T02:43:01;5.10;;;1.92;;
50495;SDS011;38806;51.554;5.704;2023-01-09T02:45:02;4.15;;;1.00;;
50495;SDS011;38806;51.554;5.704;2023-01-09T02:49:15;3.88;;;1.30;;
50495;SDS011;38806;51.554;5.704;2023-01-09T03:00:08;6.72;;;3.35;;
50495;SDS011;38806;51.554;5.704;2023-01-09T03:02:21;12.32;;;3.10;;
50495;SDS011;38806;51.554;5.704;2023-01-09T03:04:29;19.50;;;3.47;;
50495;SDS011;38806;51.554;5.704;2023-01-09T03:08:40;7.10;;;4.82;;
50495;SDS011;38806;51.554;5.704;2023-01-09T03:10:47;8.27;;;3.05;;
50495;SDS011;38806;51.554;5.704;2023-01-09T03:12:50;10.43;;;4.43;;
50495;SDS011;38806;51.554;5.704;2023-01-09T03:14:52;14.70;;;4.13;;
50495;SDS011;38806;51.554;5.704;2023-01-09T03:16:54;9.93;;;4.05;;
50495;SDS011;38806;51.554;5.704;2023-01-09T03:18:55;10.68;;;3.83;;
50495;SDS011;38806;51.554;5.704;2023-01-09T03:20:58;8.43;;;2.80;;
50495;SDS011;38806;51.554;5.704;2023-01-09T03:23:00;9.13;;;3.60;;
50495;SDS011;38806;51.554;5.704;2023-01-09T03:25:00;12.52;;;4.28;;
50495;SDS011;38806;51.554;5.704;2023-01-09T03:27:00;7.72;;;2.47;;
50495;SDS011;38806;51.554;5.704;2023-01-09T03:29:01;7.03;;;3.42;;
50495;SDS011;38806;51.554;5.704;2023-01-09T03:31:01;8.85;;;3.03;;
50495;SDS011;38806;51.554;5.704;2023-01-09T03:33:02;9.15;;;2.70;;
50495;SDS011;38806;51.554;5.704;2023-01-09T03:35:02;6.43;;;2.45;;
50495;SDS011;38806;51.554;5.704;2023-01-09T03:37:02;7.43;;;2.80;;
50495;SDS011;38806;51.554;5.704;2023-01-09T03:39:03;6.05;;;2.22;;
50495;SDS011;38806;51.554;5.704;2023-01-09T03:41:04;10.02;;;3.20;;
50495;SDS011;38806;51.554;5.704;2023-01-09T03:43:04;9.38;;;2.88;;
50495;SDS011;38806;51.554;5.704;2023-01-09T03:45:05;8.65;;;3.22;;
50495;SDS011;38806;51.554;5.704;2023-01-09T03:47:05;7.50;;;2.80;;
50495;SDS011;38806;51.554;5.704;2023-01-09T03:49:05;9.07;;;3.60;;
50495;SDS011;38806;51.554;5.704;2023-01-09T03:51:05;11.60;;;2.97;;
50495;SDS011;38806;51.554;5.704;2023-01-09T03:53:05;10.40;;;2.95;;
50495;SDS011;38806;51.554;5.704;2023-01-09T03:55:06;6.80;;;2.63;;
50495;SDS011;38806;51.554;5.704;2023-01-09T03:57:06;8.05;;;2.60;;
50495;SDS011;38806;51.554;5.704;2023-01-09T03:59:06;5.80;;;2.80;;
50495;SDS011;38806;51.554;5.704;2023-01-09T04:01:06;8.20;;;3.30;;
50495;SDS011;38806;51.554;5.704;2023-01-09T04:03:11;9.10;;;2.60;;
50495;SDS011;38806;51.554;5.704;2023-01-09T04:05:11;6.80;;;2.10;;
50495;SDS011;38806;51.554;5.704;2023-01-09T04:07:12;13.50;;;3.15;;
50495;SDS011;38806;51.554;5.704;2023-01-09T04:09:12;7.93;;;3.10;;
50495;SDS011;38806;51.554;5.704;2023-01-09T04:11:12;6.95;;;2.13;;
50495;SDS011;38806;51.554;5.704;2023-01-09T04:13:13;9.77;;;3.08;;
50495;SDS011;38806;51.554;5.704;2023-01-09T04:15:13;7.18;;;2.53;;
50495;SDS011;38806;51.554;5.704;2023-01-09T04:17:13;7.88;;;2.50;;
50495;SDS011;38806;51.554;5.704;2023-01-09T04:19:15;6.13;;;2.30;;
50495;SDS011;38806;51.554;5.704;2023-01-09T04:21:15;6.03;;;2.25;;
50495;SDS011;38806;51.554;5.704;2023-01-09T04:23:15;8.07;;;2.83;;
50495;SDS011;38806;51.554;5.704;2023-01-09T04:25:16;6.47;;;2.38;;
50495;SDS011;38806;51.554;5.704;2023-01-09T04:27:16;6.30;;;2.92;;
50495;SDS011;38806;51.554;5.704;2023-01-09T04:29:16;12.43;;;3.05;;
50495;SDS011;38806;51.554;5.704;2023-01-09T04:31:16;7.55;;;2.38;;
50495;SDS011;38806;51.554;5.704;2023-01-09T04:33:16;12.07;;;2.33;;
50495;SDS011;38806;51.554;5.704;2023-01-09T04:35:17;5.25;;;1.90;;
50495;SDS011;38806;51.554;5.704;2023-01-09T04:37:17;7.20;;;2.22;;
50495;SDS011;38806;51.554;5.704;2023-01-09T04:39:17;7.63;;;2.33;;
50495;SDS011;38806;51.554;5.704;2023-01-09T04:41:17;6.13;;;3.05;;
50495;SDS011;38806;51.554;5.704;2023-01-09T04:43:36;11.38;;;3.30;;
50495;SDS011;38806;51.554;5.704;2023-01-09T04:45:37;10.60;;;2.92;;
50495;SDS011;38806;51.554;5.704;2023-01-09T04:47:37;5.28;;;2.17;;
50495;SDS011;38806;51.554;5.704;2023-01-09T04:49:38;12.18;;;2.67;;
50495;SDS011;38806;51.554;5.704;2023-01-09T04:51:38;7.07;;;2.15;;
50495;SDS011;38806;51.554;5.704;2023-01-09T04:53:38;7.38;;;2.75;;
50495;SDS011;38806;51.554;5.704;2023-01-09T04:55:38;6.20;;;3.05;;
50495;SDS011;38806;51.554;5.704;2023-01-09T04:57:40;7.53;;;2.42;;
50495;SDS011;38806;51.554;5.704;2023-01-09T04:59:40;10.27;;;2.38;;
50495;SDS011;38806;51.554;5.704;2023-01-09T05:01:40;10.68;;;3.22;;
50495;SDS011;38806;51.554;5.704;2023-01-09T05:03:40;7.47;;;2.10;;
50495;SDS011;38806;51.554;5.704;2023-01-09T05:05:40;7.15;;;2.55;;
50495;SDS011;38806;51.554;5.704;2023-01-09T05:07:41;8.27;;;2.33;;
50495;SDS011;38806;51.554;5.704;2023-01-09T05:09:41;8.50;;;2.70;;
50495;SDS011;38806;51.554;5.704;2023-01-09T05:11:42;6.55;;;2.15;;
50495;SDS011;38806;51.554;5.704;2023-01-09T05:13:42;8.20;;;1.90;;
50495;SDS011;38806;51.554;5.704;2023-01-09T05:15:42;6.72;;;1.70;;
50495;SDS011;38806;51.554;5.704;2023-01-09T05:17:43;8.27;;;2.03;;
50495;SDS011;38806;51.554;5.704;2023-01-09T05:19:43;6.68;;;2.60;;
50495;SDS011;38806;51.554;5.704;2023-01-09T05:21:44;9.70;;;2.90;;
50495;SDS011;38806;51.554;5.704;2023-01-09T05:23:44;6.72;;;2.30;;
50495;SDS011;38806;51.554;5.704;2023-01-09T05:25:44;6.32;;;2.60;;
50495;SDS011;38806;51.554;5.704;2023-01-09T05:27:44;12.57;;;2.35;;
50495;SDS011;38806;51.554;5.704;2023-01-09T05:29:45;5.63;;;1.90;;
50495;SDS011;38806;51.554;5.704;2023-01-09T05:31:45;7.20;;;1.88;;
50495;SDS011;38806;51.554;5.704;2023-01-09T05:33:45;7.57;;;2.38;;
50495;SDS011;38806;51.554;5.704;2023-01-09T05:35:46;6.68;;;2.75;;
50495;SDS011;38806;51.554;5.704;2023-01-09T05:37:46;8.25;;;2.25;;
50495;SDS011;38806;51.554;5.704;2023-01-09T05:39:46;9.68;;;1.77;;
50495;SDS011;38806;51.554;5.704;2023-01-09T05:41:46;5.05;;;1.38;;
50495;SDS011;38806;51.554;5.704;2023-01-09T05:43:46;11.45;;;2.22;;
50495;SDS011;38806;51.554;5.704;2023-01-09T05:45:46;6.75;;;1.85;;
50495;SDS011;38806;51.554;5.704;2023-01-09T05:47:47;4.35;;;1.60;;
50495;SDS011;38806;51.554;5.704;2023-01-09T05:49:47;8.18;;;1.40;;
50495;SDS011;38806;51.554;5.704;2023-01-09T05:51:47;5.35;;;1.92;;
50495;SDS011;38806;51.554;5.704;2023-01-09T05:53:47;12.18;;;2.55;;
50495;SDS011;38806;51.554;5.704;2023-01-09T05:55:48;9.25;;;2.95;;
50495;SDS011;38806;51.554;5.704;2023-01-09T05:57:48;9.02;;;2.80;;
50495;SDS011;38806;51.554;5.704;2023-01-09T05:59:48;7.78;;;1.65;;
50495;SDS011;38806;51.554;5.704;2023-01-09T06:01:48;5.10;;;1.90;;
50495;SDS011;38806;51.554;5.704;2023-01-09T06:03:48;6.53;;;3.55;;
50495;SDS011;38806;51.554;5.704;2023-01-09T06:05:48;10.35;;;3.78;;
50495;SDS011;38806;51.554;5.704;2023-01-09T06:07:50;7.05;;;2.05;;
50495;SDS011;38806;51.554;5.704;2023-01-09T06:09:50;6.70;;;1.60;;
50495;SDS011;38806;51.554;5.704;2023-01-09T06:11:51;8.75;;;3.35;;
50495;SDS011;38806;51.554;5.704;2023-01-09T06:13:53;7.88;;;2.67;;
50495;SDS011;38806;51.554;5.704;2023-01-09T06:15:53;10.40;;;2.65;;
50495;SDS011;38806;51.554;5.704;2023-01-09T06:17:53;9.30;;;2.10;;
50495;SDS011;38806;51.554;5.704;2023-01-09T06:19:53;4.05;;;1.92;;
50495;SDS011;38806;51.554;5.704;2023-01-09T06:21:54;6.75;;;2.10;;
50495;SDS011;38806;51.554;5.704;2023-01-09T06:23:54;5.07;;;1.48;;
50495;SDS011;38806;51.554;5.704;2023-01-09T06:25:55;8.38;;;1.88;;
50495;SDS011;38806;51.554;5.704;2023-01-09T06:27:55;6.80;;;2.55;;
50495;SDS011;38806;51.554;5.704;2023-01-09T06:29:55;5.82;;;1.75;;
50495;SDS011;38806;51.554;5.704;2023-01-09T06:31:56;9.90;;;2.42;;
50495;SDS011;38806;51.554;5.704;2023-01-09T06:33:56;10.00;;;3.53;;
50495;SDS011;38806;51.554;5.704;2023-01-09T06:35:56;6.60;;;1.98;;
50495;SDS011;38806;51.554;5.704;2023-01-09T06:37:56;8.38;;;2.97;;
50495;SDS011;38806;51.554;5.704;2023-01-09T06:39:58;6.65;;;1.73;;
50495;SDS011;38806;51.554;5.704;2023-01-09T06:41:58;14.32;;;4.13;;
50495;SDS011;38806;51.554;5.704;2023-01-09T06:43:58;4.00;;;2.55;;
50495;SDS011;38806;51.554;5.704;2023-01-09T06:45:59;10.95;;;3.20;;
50495;SDS011;38806;51.554;5.704;2023-01-09T06:47:59;8.43;;;1.73;;
50495;SDS011;38806;51.554;5.704;2023-01-09T06:49:59;6.55;;;2.00;;
50495;SDS011;38806;51.554;5.704;2023-01-09T06:51:59;8.80;;;3.08;;
50495;SDS011;38806;51.554;5.704;2023-01-09T06:54:04;10.65;;;2.72;;
50495;SDS011;38806;51.554;5.704;2023-01-09T06:56:04;7.88;;;1.98;;
50495;SDS011;38806;51.554;5.704;2023-01-09T06:58:04;8.00;;;3.85;;
50495;SDS011;38806;51.554;5.704;2023-01-09T07:00:05;6.63;;;2.30;;
50495;SDS011;38806;51.554;5.704;2023-01-09T07:02:05;9.40;;;2.92;;
50495;SDS011;38806;51.554;5.704;2023-01-09T07:04:06;7.65;;;2.10;;
50495;SDS011;38806;51.554;5.704;2023-01-09T07:06:06;6.03;;;2.10;;
50495;SDS011;38806;51.554;5.704;2023-01-09T07:08:07;8.45;;;3.10;;
50495;SDS011;38806;51.554;5.704;2023-01-09T07:10:08;10.63;;;2.40;;
50495;SDS011;38806;51.554;5.704;2023-01-09T07:12:08;10.13;;;2.05;;
50495;SDS011;38806;51.554;5.704;2023-01-09T07:14:08;10.60;;;2.22;;
50495;SDS011;38806;51.554;5.704;2023-01-09T07:16:09;10.32;;;2.35;;
50495;SDS011;38806;51.554;5.704;2023-01-09T07:18:09;15.15;;;2.70;;
50495;SDS011;38806;51.554;5.704;2023-01-09T07:20:09;6.22;;;1.90;;
50495;SDS011;38806;51.554;5.704;2023-01-09T07:22:10;12.20;;;2.40;;
50495;SDS011;38806;51.554;5.704;2023-01-09T07:24:10;7.35;;;2.58;;
50495;SDS011;38806;51.554;5.704;2023-01-09T07:26:10;11.18;;;3.08;;
50495;SDS011;38806;51.554;5.704;2023-01-09T07:28:10;10.27;;;4.70;;
50495;SDS011;38806;51.554;5.704;2023-01-09T07:30:11;9.25;;;2.22;;
50495;SDS011;38806;51.554;5.704;2023-01-09T07:32:11;11.18;;;3.05;;
50495;SDS011;38806;51.554;5.704;2023-01-09T07:34:11;8.02;;;2.38;;
50495;SDS011;38806;51.554;5.704;2023-01-09T07:36:12;11.18;;;3.47;;
50495;SDS011;38806;51.554;5.704;2023-01-09T07:38:12;9.30;;;2.47;;
50495;SDS011;38806;51.554;5.704;2023-01-09T07:40:12;6.65;;;2.33;;
50495;SDS011;38806;51.554;5.704;2023-01-09T07:42:12;7.72;;;2.55;;
50495;SDS011;38806;51.554;5.704;2023-01-09T07:44:13;6.32;;;1.75;;
50495;SDS011;38806;51.554;5.704;2023-01-09T07:46:13;13.82;;;2.65;;
50495;SDS011;38806;51.554;5.704;2023-01-09T07:48:13;6.53;;;2.88;;
50495;SDS011;38806;51.554;5.704;2023-01-09T07:50:13;10.10;;;2.25;;
50495;SDS011;38806;51.554;5.704;2023-01-09T07:52:14;5.88;;;2.70;;
50495;SDS011;38806;51.554;5.704;2023-01-09T07:54:14;8.38;;;2.08;;
50495;SDS011;38806;51.554;5.704;2023-01-09T07:56:15;8.23;;;2.38;;
50495;SDS011;38806;51.554;5.704;2023-01-09T07:58:15;11.43;;;2.75;;
50495;SDS011;38806;51.554;5.704;2023-01-09T08:00:15;8.38;;;3.10;;
50495;SDS011;38806;51.554;5.704;2023-01-09T08:02:16;11.65;;;2.70;;
50495;SDS011;38806;51.554;5.704;2023-01-09T08:04:17;12.68;;;2.83;;
50495;SDS011;38806;51.554;5.704;2023-01-09T08:06:17;6.88;;;1.95;;
50495;SDS011;38806;51.554;5.704;2023-01-09T08:08:17;10.43;;;2.30;;
50495;SDS011;38806;51.554;5.704;2023-01-09T08:10:17;7.32;;;2.05;;
50495;SDS011;38806;51.554;5.704;2023-01-09T08:12:20;5.93;;;2.20;;
50495;SDS011;38806;51.554;5.704;2023-01-09T08:14:20;8.73;;;2.25;;
50495;SDS011;38806;51.554;5.704;2023-01-09T08:16:21;8.50;;;2.03;;
50495;SDS011;38806;51.554;5.704;2023-01-09T08:18:21;5.53;;;1.63;;
50495;SDS011;38806;51.554;5.704;2023-01-09T08:20:21;6.22;;;1.75;;
50495;SDS011;38806;51.554;5.704;2023-01-09T08:22:21;7.15;;;2.67;;
50495;SDS011;38806;51.554;5.704;2023-01-09T08:24:21;6.13;;;3.03;;
50495;SDS011;38806;51.554;5.704;2023-01-09T08:26:22;6.03;;;2.30;;
50495;SDS011;38806;51.554;5.704;2023-01-09T08:28:22;8.20;;;2.10;;
50495;SDS011;38806;51.554;5.704;2023-01-09T08:30:22;5.43;;;1.70;;
50495;SDS011;38806;51.554;5.704;2023-01-09T08:32:22;6.38;;;1.70;;
50495;SDS011;38806;51.554;5.704;2023-01-09T08:34:22;7.65;;;2.10;;
50495;SDS011;38806;51.554;5.704;2023-01-09T08:36:23;5.80;;;1.77;;
50495;SDS011;38806;51.554;5.704;2023-01-09T08:38:23;6.57;;;3.65;;
50495;SDS011;38806;51.554;5.704;2023-01-09T08:40:23;5.80;;;2.22;;
50495;SDS011;38806;51.554;5.704;2023-01-09T08:42:23;5.20;;;1.80;;
50495;SDS011;38806;51.554;5.704;2023-01-09T08:44:42;10.23;;;3.28;;
50495;SDS011;38806;51.554;5.704;2023-01-09T08:47:01;5.88;;;2.20;;
50495;SDS011;38806;51.554;5.704;2023-01-09T08:49:04;7.47;;;2.10;;
50495;SDS011;38806;51.554;5.704;2023-01-09T08:51:04;9.27;;;1.98;;
50495;SDS011;38806;51.554;5.704;2023-01-09T08:53:04;10.32;;;2.67;;
50495;SDS011;38806;51.554;5.704;2023-01-09T08:55:05;6.05;;;1.98;;
50495;SDS011;38806;51.554;5.704;2023-01-09T08:57:05;5.20;;;1.77;;
50495;SDS011;38806;51.554;5.704;2023-01-09T08:59:06;9.88;;;3.55;;
50495;SDS011;38806;51.554;5.704;2023-01-09T09:01:06;7.78;;;2.50;;
50495;SDS011;38806;51.554;5.704;2023-01-09T09:03:07;6.05;;;1.85;;
50495;SDS011;38806;51.554;5.704;2023-01-09T09:05:08;14.93;;;3.78;;
50495;SDS011;38806;51.554;5.704;2023-01-09T09:07:08;8.18;;;2.13;;
50495;SDS011;38806;51.554;5.704;2023-01-09T09:09:09;6.38;;;2.22;;
50495;SDS011;38806;51.554;5.704;2023-01-09T09:11:09;8.43;;;2.42;;
50495;SDS011;38806;51.554;5.704;2023-01-09T09:13:10;4.70;;;2.00;;
50495;SDS011;38806;51.554;5.704;2023-01-09T09:15:10;7.43;;;2.33;;
50495;SDS011;38806;51.554;5.704;2023-01-09T09:17:19;9.68;;;4.45;;
50495;SDS011;38806;51.554;5.704;2023-01-09T09:19:19;3.72;;;1.65;;
50495;SDS011;38806;51.554;5.704;2023-01-09T09:21:19;4.65;;;2.00;;
50495;SDS011;38806;51.554;5.704;2023-01-09T09:23:19;10.43;;;2.40;;
50495;SDS011;38806;51.554;5.704;2023-01-09T09:25:21;4.95;;;2.08;;
50495;SDS011;38806;51.554;5.704;2023-01-09T09:27:21;6.53;;;2.45;;
50495;SDS011;38806;51.554;5.704;2023-01-09T09:29:22;5.18;;;2.40;;
50495;SDS011;38806;51.554;5.704;2023-01-09T09:31:22;9.15;;;2.40;;
50495;SDS011;38806;51.554;5.704;2023-01-09T09:33:23;7.00;;;2.60;;
50495;SDS011;38806;51.554;5.704;2023-01-09T09:35:23;8.10;;;2.33;;
50495;SDS011;38806;51.554;5.704;2023-01-09T09:37:23;8.02;;;2.88;;
50495;SDS011;38806;51.554;5.704;2023-01-09T09:39:23;8.05;;;2.97;;
50495;SDS011;38806;51.554;5.704;2023-01-09T09:44:09;10.15;;;3.03;;
50495;SDS011;38806;51.554;5.704;2023-01-09T09:48:50;7.43;;;2.63;;
50495;SDS011;38806;51.554;5.704;2023-01-09T09:53:30;10.75;;;2.60;;
50495;SDS011;38806;51.554;5.704;2023-01-09T09:55:32;7.03;;;2.90;;
50495;SDS011;38806;51.554;5.704;2023-01-09T09:57:33;7.32;;;2.85;;
50495;SDS011;38806;51.554;5.704;2023-01-09T09:59:35;10.60;;;3.33;;
50495;SDS011;38806;51.554;5.704;2023-01-09T10:01:41;6.78;;;3.20;;
50495;SDS011;38806;51.554;5.704;2023-01-09T10:03:46;8.98;;;3.60;;
50495;SDS011;38806;51.554;5.704;2023-01-09T10:05:46;8.00;;;3.28;;
50495;SDS011;38806;51.554;5.704;2023-01-09T10:07:47;11.95;;;3.58;;
50495;SDS011;38806;51.554;5.704;2023-01-09T10:09:50;7.07;;;3.42;;
50495;SDS011;38806;51.554;5.704;2023-01-09T10:12:04;12.27;;;3.63;;
50495;SDS011;38806;51.554;5.704;2023-01-09T10:14:10;9.38;;;3.20;;
50495;SDS011;38806;51.554;5.704;2023-01-09T10:18:16;13.10;;;5.43;;
50495;SDS011;38806;51.554;5.704;2023-01-09T10:22:31;9.30;;;3.20;;
50495;SDS011;38806;51.554;5.704;2023-01-09T10:26:36;13.07;;;3.83;;
50495;SDS011;38806;51.554;5.704;2023-01-09T10:30:48;9.40;;;4.30;;
50495;SDS011;38806;51.554;5.704;2023-01-09T10:37:17;9.57;;;3.90;;
50495;SDS011;38806;51.554;5.704;2023-01-09T10:39:19;7.68;;;2.80;;
50495;SDS011;38806;51.554;5.704;2023-01-09T10:41:24;11.05;;;3.50;;
50495;SDS011;38806;51.554;5.704;2023-01-09T10:43:35;9.43;;;3.47;;
50495;SDS011;38806;51.554;5.704;2023-01-09T10:45:42;6.15;;;3.08;;
50495;SDS011;38806;51.554;5.704;2023-01-09T10:47:46;9.25;;;3.55;;
50495;SDS011;38806;51.554;5.704;2023-01-09T10:49:47;7.43;;;3.40;;
50495;SDS011;38806;51.554;5.704;2023-01-09T10:51:55;7.93;;;3.55;;
50495;SDS011;38806;51.554;5.704;2023-01-09T10:53:56;10.02;;;3.83;;
50495;SDS011;38806;51.554;5.704;2023-01-09T10:56:00;7.43;;;3.65;;
50495;SDS011;38806;51.554;5.704;2023-01-09T10:58:02;7.38;;;4.28;;
50495;SDS011;38806;51.554;5.704;2023-01-09T11:00:04;10.10;;;3.47;;
50495;SDS011;38806;51.554;5.704;2023-01-09T11:02:04;8.82;;;3.95;;
50495;SDS011;38806;51.554;5.704;2023-01-09T11:04:19;10.43;;;4.13;;
50495;SDS011;38806;51.554;5.704;2023-01-09T11:06:21;6.40;;;3.50;;
50495;SDS011;38806;51.554;5.704;2023-01-09T11:08:36;8.88;;;3.50;;
50495;SDS011;38806;51.554;5.704;2023-01-09T11:12:48;9.55;;;3.85;;
50495;SDS011;38806;51.554;5.704;2023-01-09T11:14:48;7.65;;;3.83;;
50495;SDS011;38806;51.554;5.704;2023-01-09T11:16:49;10.57;;;4.10;;
50495;SDS011;38806;51.554;5.704;2023-01-09T11:18:50;10.38;;;3.95;;
50495;SDS011;38806;51.554;5.704;2023-01-09T11:20:51;8.48;;;4.43;;
50495;SDS011;38806;51.554;5.704;2023-01-09T11:22:56;7.78;;;3.90;;
50495;SDS011;38806;51.554;5.704;2023-01-09T11:24:58;11.07;;;4.80;;
50495;SDS011;38806;51.554;5.704;2023-01-09T11:27:22;10.30;;;5.22;;
50495;SDS011;38806;51.554;5.704;2023-01-09T11:29:22;9.10;;;5.28;;
50495;SDS011;38806;51.554;5.704;2023-01-09T11:31:25;8.77;;;4.43;;
50495;SDS011;38806;51.554;5.704;2023-01-09T11:33:33;10.55;;;5.05;;
50495;SDS011;38806;51.554;5.704;2023-01-09T11:35:34;9.98;;;5.88;;
50495;SDS011;38806;51.554;5.704;2023-01-09T11:37:35;10.27;;;4.97;;
50495;SDS011;38806;51.554;5.704;2023-01-09T11:39:36;10.25;;;4.30;;
50495;SDS011;38806;51.554;5.704;2023-01-09T11:41:40;8.32;;;4.47;;
50495;SDS011;38806;51.554;5.704;2023-01-09T11:43:40;10.93;;;4.93;;
50495;SDS011;38806;51.554;5.704;2023-01-09T11:45:46;9.45;;;4.50;;
50495;SDS011;38806;51.554;5.704;2023-01-09T11:47:48;9.50;;;4.85;;
50495;SDS011;38806;51.554;5.704;2023-01-09T11:49:48;9.18;;;4.80;;
50495;SDS011;38806;51.554;5.704;2023-01-09T11:52:03;8.45;;;4.35;;
50495;SDS011;38806;51.554;5.704;2023-01-09T11:54:23;9.70;;;4.65;;
50495;SDS011;38806;51.554;5.704;2023-01-09T11:56:25;13.30;;;4.45;;
50495;SDS011;38806;51.554;5.704;2023-01-09T11:58:29;15.88;;;5.10;;
50495;SDS011;38806;51.554;5.704;2023-01-09T12:00:34;12.82;;;5.18;;
50495;SDS011;38806;51.554;5.704;2023-01-09T12:04:49;11.48;;;6.97;;
50495;SDS011;38806;51.554;5.704;2023-01-09T12:11:29;11.43;;;3.97;;
50495;SDS011;38806;51.554;5.704;2023-01-09T12:17:57;11.00;;;5.32;;
50495;SDS011;38806;51.554;5.704;2023-01-09T12:26:35;12.45;;;5.10;;
50495;SDS011;38806;51.554;5.704;2023-01-09T12:28:47;9.77;;;4.80;;
50495;SDS011;38806;51.554;5.704;2023-01-09T12:30:55;13.93;;;4.95;;
50495;SDS011;38806;51.554;5.704;2023-01-09T12:33:11;8.32;;;4.20;;
50495;SDS011;38806;51.554;5.704;2023-01-09T12:37:36;15.60;;;5.18;;
50495;SDS011;38806;51.554;5.704;2023-01-09T12:39:44;11.30;;;5.38;;
50495;SDS011;38806;51.554;5.704;2023-01-09T12:41:56;12.43;;;5.72;;
50495;SDS011;38806;51.554;5.704;2023-01-09T12:46:20;11.10;;;6.13;;
50495;SDS011;38806;51.554;5.704;2023-01-09T12:52:46;10.00;;;4.80;;
50495;SDS011;38806;51.554;5.704;2023-01-09T12:54:53;13.15;;;4.88;;
50495;SDS011;38806;51.554;5.704;2023-01-09T12:57:18;9.13;;;5.70;;
50495;SDS011;38806;51.554;5.704;2023-01-09T13:01:31;6.53;;;3.78;;
50495;SDS011;38806;51.554;5.704;2023-01-09T13:03:40;10.57;;;4.30;;
50495;SDS011;38806;51.554;5.704;2023-01-09T13:05:50;6.97;;;4.20;;
50495;SDS011;38806;51.554;5.704;2023-01-09T13:07:56;9.98;;;5.25;;
50495;SDS011;38806;51.554;5.704;2023-01-09T13:10:01;9.88;;;5.82;;
50495;SDS011;38806;51.554;5.704;2023-01-09T13:12:12;10.43;;;4.82;;
50495;SDS011;38806;51.554;5.704;2023-01-09T13:14:15;15.13;;;4.82;;
50495;SDS011;38806;51.554;5.704;2023-01-09T13:16:18;11.18;;;4.40;;
50495;SDS011;38806;51.554;5.704;2023-01-09T13:18:22;13.30;;;4.85;;
50495;SDS011;38806;51.554;5.704;2023-01-09T13:20:27;7.85;;;4.40;;
50495;SDS011;38806;51.554;5.704;2023-01-09T13:22:27;11.55;;;4.88;;
50495;SDS011;38806;51.554;5.704;2023-01-09T13:24:29;12.73;;;4.80;;
50495;SDS011;38806;51.554;5.704;2023-01-09T13:26:34;10.32;;;5.70;;
50495;SDS011;38806;51.554;5.704;2023-01-09T13:28:38;9.52;;;5.40;;
50495;SDS011;38806;51.554;5.704;2023-01-09T13:30:49;17.25;;;6.10;;
50495;SDS011;38806;51.554;5.704;2023-01-09T13:32:57;15.50;;;6.57;;
50495;SDS011;38806;51.554;5.704;2023-01-09T13:35:02;8.63;;;5.20;;
50495;SDS011;38806;51.554;5.704;2023-01-09T13:37:03;14.77;;;6.75;;
50495;SDS011;38806;51.554;5.704;2023-01-09T13:39:03;15.00;;;6.80;;